createdAt,value
2018-03-30T00:00:33.553Z,53.60
2018-03-30T00:03:01.082Z,53.60
2018-03-30T00:05:28.610Z,53.80
2018-03-30T00:07:56.168Z,53.70
2018-03-30T00:10:23.725Z,53.70
2018-03-30T00:12:51.268Z,53.70
2018-03-30T00:15:18.797Z,53.70
2018-03-30T00:17:46.361Z,53.60
2018-03-30T00:20:13.940Z,53.50
2018-03-30T00:22:41.524Z,53.70
2018-03-30T00:25:09.097Z,53.60
2018-03-30T00:27:36.634Z,53.80
2018-03-30T00:30:04.193Z,53.80
2018-03-30T00:32:31.719Z,53.60
2018-03-30T00:34:59.255Z,53.60
2018-03-30T00:37:26.811Z,53.70
2018-03-30T00:39:55.136Z,53.70
2018-03-30T00:42:22.675Z,53.70
2018-03-30T00:44:50.375Z,53.70
2018-03-30T00:47:17.926Z,53.70
2018-03-30T00:49:45.442Z,53.50
2018-03-30T00:52:12.996Z,52.70
2018-03-30T00:54:40.886Z,54.10
2018-03-30T00:57:08.442Z,53.90
2018-03-30T00:59:35.980Z,53.40
2018-03-30T01:02:03.530Z,54.00
2018-03-30T01:04:31.121Z,53.10
2018-03-30T01:06:58.649Z,52.90
2018-03-30T01:09:26.210Z,53.20
2018-03-30T01:11:54.506Z,53.00
2018-03-30T01:14:22.048Z,53.00
2018-03-30T01:16:50.353Z,52.70
2018-03-30T01:19:17.888Z,52.70
2018-03-30T01:21:45.441Z,52.90
2018-03-30T01:24:13.729Z,53.10
2018-03-30T01:26:41.283Z,53.00
2018-03-30T01:29:09.588Z,53.10
2018-03-30T01:31:37.137Z,53.00
2018-03-30T01:34:04.708Z,52.60
2018-03-30T01:36:32.265Z,53.00
2018-03-30T01:38:59.816Z,53.10
2018-03-30T01:41:27.408Z,53.10
2018-03-30T01:43:54.960Z,52.40
2018-03-30T01:46:22.510Z,52.80
2018-03-30T01:48:50.066Z,53.50
2018-03-30T01:51:17.602Z,53.20
2018-03-30T01:53:45.148Z,53.10
2018-03-30T01:56:13.430Z,52.80
2018-03-30T01:58:41.002Z,52.80
2018-03-30T02:01:08.550Z,52.70
2018-03-30T02:03:36.082Z,52.90
2018-03-30T02:06:03.617Z,52.50
2018-03-30T02:08:31.147Z,52.90
2018-03-30T02:10:58.733Z,52.90
2018-03-30T02:13:26.288Z,52.60
2018-03-30T02:15:53.839Z,53.00
2018-03-30T02:18:21.367Z,52.40
2018-03-30T02:20:48.907Z,52.80
2018-03-30T02:23:16.469Z,52.40
2018-03-30T02:25:44.031Z,52.60
2018-03-30T02:28:11.579Z,52.80
2018-03-30T02:30:39.116Z,53.10
2018-03-30T02:33:06.656Z,52.70
2018-03-30T02:35:34.253Z,52.90
2018-03-30T02:38:01.799Z,52.80
2018-03-30T02:40:29.348Z,52.60
2018-03-30T02:42:56.900Z,53.00
2018-03-30T02:45:24.435Z,52.50
2018-03-30T02:47:52.011Z,52.80
2018-03-30T02:50:19.546Z,52.80
2018-03-30T02:52:47.097Z,52.90
2018-03-30T02:55:14.648Z,53.00
2018-03-30T02:57:42.207Z,53.00
2018-03-30T03:00:09.789Z,53.00
2018-03-30T03:02:37.345Z,53.20
2018-03-30T03:05:04.912Z,53.50
2018-03-30T03:07:32.534Z,53.90
2018-03-30T03:10:00.082Z,54.50
2018-03-30T03:12:28.420Z,54.10
2018-03-30T03:14:55.984Z,54.10
2018-03-30T03:17:23.536Z,53.70
2018-03-30T03:19:51.064Z,53.70
2018-03-30T03:22:18.613Z,53.50
2018-03-30T03:24:46.942Z,53.80
2018-03-30T03:27:14.484Z,53.80
2018-03-30T03:29:42.037Z,53.50
2018-03-30T03:32:09.585Z,54.00
2018-03-30T03:34:37.155Z,53.90
2018-03-30T03:37:04.722Z,53.60
2018-03-30T03:39:32.273Z,53.60
2018-03-30T03:41:59.820Z,54.00
2018-03-30T03:44:27.350Z,54.00
2018-03-30T03:46:54.890Z,53.50
2018-03-30T03:49:22.445Z,53.90
2018-03-30T03:51:49.983Z,53.90
2018-03-30T03:54:17.533Z,53.80
2018-03-30T03:56:45.080Z,53.90
2018-03-30T03:59:12.612Z,53.50
2018-03-30T04:01:40.185Z,53.90
2018-03-30T04:04:07.722Z,53.80
2018-03-30T04:06:35.267Z,54.00
2018-03-30T04:09:03.590Z,53.90
2018-03-30T04:11:31.147Z,53.90
2018-03-30T04:13:58.707Z,53.80
2018-03-30T04:16:26.239Z,54.20
2018-03-30T04:18:53.808Z,54.20
2018-03-30T04:21:21.338Z,54.00
2018-03-30T04:23:48.887Z,53.90
2018-03-30T04:26:16.465Z,54.10
2018-03-30T04:28:44.013Z,53.90
2018-03-30T04:31:11.552Z,53.80
2018-03-30T04:33:39.103Z,54.20
2018-03-30T04:36:06.645Z,54.20
2018-03-30T04:38:34.220Z,54.10
2018-03-30T04:41:01.792Z,53.80
2018-03-30T04:43:29.326Z,54.20
2018-03-30T04:45:56.871Z,54.10
2018-03-30T04:48:24.428Z,54.20
2018-03-30T04:50:51.988Z,54.30
2018-03-30T04:53:19.529Z,54.50
2018-03-30T04:55:47.058Z,54.40
2018-03-30T04:58:14.606Z,54.40
2018-03-30T05:00:42.160Z,54.30
2018-03-30T05:03:09.724Z,54.80
2018-03-30T05:05:37.267Z,54.60
2018-03-30T05:08:04.832Z,54.80
2018-03-30T05:10:32.382Z,54.90
2018-03-30T05:12:59.934Z,54.80
2018-03-30T05:15:27.483Z,54.80
2018-03-30T05:17:55.025Z,54.30
2018-03-30T05:20:22.582Z,54.20
2018-03-30T05:22:50.160Z,55.00
2018-03-30T05:25:17.682Z,55.10
2018-03-30T05:27:45.991Z,55.60
2018-03-30T05:30:13.655Z,55.60
2018-03-30T05:32:41.210Z,55.20
2018-03-30T05:35:08.762Z,55.50
2018-03-30T05:37:36.324Z,55.40
2018-03-30T05:40:03.858Z,55.70
2018-03-30T05:42:31.455Z,55.90
2018-03-30T05:44:59.033Z,55.00
2018-03-30T05:47:26.580Z,56.10
2018-03-30T05:49:54.117Z,56.10
2018-03-30T05:52:21.664Z,55.50
2018-03-30T05:54:49.211Z,56.30
2018-03-30T05:57:17.545Z,55.70
2018-03-30T05:59:45.084Z,55.70
2018-03-30T06:02:12.630Z,55.30
2018-03-30T06:04:40.165Z,56.50
2018-03-30T06:07:07.700Z,55.80
2018-03-30T06:09:35.311Z,56.00
2018-03-30T06:12:02.868Z,55.40
2018-03-30T06:14:30.440Z,55.10
2018-03-30T06:16:57.980Z,55.70
2018-03-30T06:19:25.529Z,56.40
2018-03-30T06:21:53.108Z,57.00
2018-03-30T06:24:20.642Z,57.40
2018-03-30T06:26:48.211Z,57.40
2018-03-30T06:29:15.794Z,56.60
2018-03-30T06:31:43.329Z,57.00
2018-03-30T06:34:10.904Z,56.30
2018-03-30T06:36:38.442Z,56.10
2018-03-30T06:39:05.980Z,56.70
2018-03-30T06:41:33.524Z,57.10
2018-03-30T06:44:01.061Z,56.00
2018-03-30T06:46:28.646Z,56.80
2018-03-30T06:48:56.191Z,56.50
2018-03-30T06:51:23.722Z,56.80
2018-03-30T06:53:51.296Z,56.80
2018-03-30T06:56:18.817Z,56.30
2018-03-30T06:58:46.352Z,57.20
2018-03-30T07:01:13.926Z,56.40
2018-03-30T07:03:41.458Z,57.20
2018-03-30T07:06:08.992Z,56.40
2018-03-30T07:08:36.522Z,56.60
2018-03-30T07:11:04.062Z,57.50
2018-03-30T07:13:31.613Z,55.90
2018-03-30T07:15:59.921Z,58.10
2018-03-30T07:18:27.464Z,57.80
2018-03-30T07:20:55.005Z,56.10
2018-03-30T07:23:23.316Z,56.20
2018-03-30T07:25:50.834Z,56.20
2018-03-30T07:28:19.163Z,56.50
2018-03-30T07:30:46.704Z,56.50
2018-03-30T07:33:14.236Z,56.60
2018-03-30T07:35:41.780Z,56.40
2018-03-30T07:38:09.294Z,56.80
2018-03-30T07:40:36.871Z,56.80
2018-03-30T07:43:04.413Z,56.10
2018-03-30T07:45:31.940Z,56.10
2018-03-30T07:48:00.232Z,57.90
2018-03-30T07:50:27.771Z,57.90
2018-03-30T07:52:56.112Z,56.00
2018-03-30T07:55:23.635Z,55.90
2018-03-30T07:57:51.191Z,57.70
2018-03-30T08:00:18.752Z,57.50
2018-03-30T08:02:46.296Z,56.70
2018-03-30T08:05:13.892Z,56.30
2018-03-30T08:07:41.430Z,57.30
2018-03-30T08:10:08.975Z,56.10
2018-03-30T08:12:36.503Z,56.10
2018-03-30T08:15:04.094Z,56.50
2018-03-30T08:17:31.664Z,56.80
2018-03-30T08:19:59.200Z,57.20
2018-03-30T08:22:27.529Z,57.00
2018-03-30T08:24:55.072Z,57.00
2018-03-30T08:27:22.615Z,57.70
2018-03-30T08:29:50.175Z,56.30
2018-03-30T08:32:17.712Z,58.00
2018-03-30T08:34:45.240Z,56.40
2018-03-30T08:37:12.780Z,53.10
2018-03-30T08:39:40.297Z,54.20
2018-03-30T08:42:07.854Z,55.10
2018-03-30T08:44:35.392Z,53.20
2018-03-30T08:47:03.682Z,54.50
2018-03-30T08:49:31.232Z,54.50
2018-03-30T08:51:58.762Z,56.70
2018-03-30T08:54:26.322Z,53.60
2018-03-30T08:56:53.858Z,52.70
2018-03-30T08:59:21.382Z,53.30
2018-03-30T09:01:48.922Z,52.30
2018-03-30T09:04:17.209Z,53.60
2018-03-30T09:06:45.543Z,54.50
2018-03-30T09:09:13.082Z,54.80
2018-03-30T09:11:40.632Z,53.80
2018-03-30T09:14:08.164Z,53.90
2018-03-30T09:16:36.455Z,54.60
2018-03-30T09:19:04.014Z,54.50
2018-03-30T09:21:31.544Z,52.80
2018-03-30T09:23:59.181Z,52.50
2018-03-30T09:26:26.729Z,54.30
2018-03-30T09:28:54.489Z,52.70
2018-03-30T09:31:22.049Z,54.70
2018-03-30T09:33:49.579Z,55.90
2018-03-30T09:36:17.132Z,53.20
2018-03-30T09:38:44.744Z,54.70
2018-03-30T09:41:12.326Z,53.90
2018-03-30T09:43:40.701Z,54.10
2018-03-30T09:46:08.256Z,54.00
2018-03-30T09:48:35.805Z,54.60
2018-03-30T09:51:03.354Z,53.70
2018-03-30T09:53:30.906Z,52.30
2018-03-30T09:55:58.507Z,52.50
2018-03-30T09:58:26.061Z,53.40
2018-03-30T10:00:53.616Z,54.90
2018-03-30T10:03:21.175Z,52.50
2018-03-30T10:05:48.733Z,50.50
2018-03-30T10:08:16.315Z,53.90
2018-03-30T10:10:43.874Z,50.70
2018-03-30T10:13:11.442Z,56.50
2018-03-30T10:15:38.994Z,57.10
2018-03-30T10:18:07.316Z,55.30
2018-03-30T10:20:34.889Z,55.20
2018-03-30T10:23:02.442Z,54.60
2018-03-30T10:25:29.995Z,53.50
2018-03-30T10:27:57.566Z,51.00
2018-03-30T10:30:25.129Z,52.40
2018-03-30T10:32:52.714Z,57.20
2018-03-30T10:35:21.034Z,47.50
2018-03-30T10:37:48.599Z,47.50
2018-03-30T10:40:16.154Z,53.10
2018-03-30T10:42:43.732Z,51.60
2018-03-30T10:45:11.396Z,53.90
2018-03-30T10:47:38.958Z,49.10
2018-03-30T10:50:06.522Z,48.80
2018-03-30T10:52:34.074Z,52.10
2018-03-30T10:55:01.636Z,52.70
2018-03-30T10:57:29.218Z,47.10
2018-03-30T10:59:57.581Z,50.90
2018-03-30T11:02:25.143Z,50.90
2018-03-30T11:04:52.691Z,52.40
2018-03-30T11:07:20.243Z,46.50
2018-03-30T11:09:47.823Z,43.30
2018-03-30T11:12:15.371Z,49.00
2018-03-30T11:14:42.939Z,46.00
2018-03-30T11:17:10.490Z,51.80
2018-03-30T11:19:38.040Z,53.80
2018-03-30T11:22:05.617Z,52.50
2018-03-30T11:24:33.189Z,52.50
2018-03-30T11:27:00.743Z,49.70
2018-03-30T11:29:28.304Z,49.70
2018-03-30T11:31:55.850Z,46.30
2018-03-30T11:34:23.430Z,48.40
2018-03-30T11:36:50.994Z,48.40
2018-03-30T11:39:19.314Z,46.40
2018-03-30T11:41:46.870Z,46.10
2018-03-30T11:44:14.422Z,51.30
2018-03-30T11:46:42.009Z,53.40
2018-03-30T11:49:09.565Z,49.40
2018-03-30T11:51:37.118Z,46.00
2018-03-30T11:54:04.673Z,49.50
2018-03-30T11:56:32.233Z,51.40
2018-03-30T11:58:59.841Z,53.60
2018-03-30T12:01:27.390Z,49.10
2018-03-30T12:03:54.948Z,52.00
2018-03-30T12:06:22.507Z,50.40
2018-03-30T12:08:50.067Z,46.40
2018-03-30T12:11:17.660Z,45.80
2018-03-30T12:13:45.215Z,47.80
2018-03-30T12:16:12.770Z,47.60
2018-03-30T12:18:42.866Z,48.30
2018-03-30T12:21:10.420Z,47.50
2018-03-30T12:23:38.018Z,50.30
2018-03-30T12:26:05.599Z,49.10
2018-03-30T12:28:33.145Z,46.80
2018-03-30T12:31:00.718Z,52.00
2018-03-30T12:33:28.280Z,47.30
2018-03-30T12:35:55.874Z,45.10
2018-03-30T12:38:23.431Z,48.70
2018-03-30T12:40:50.996Z,48.10
2018-03-30T12:43:18.555Z,45.30
2018-03-30T12:45:46.102Z,45.10
2018-03-30T12:48:13.690Z,46.60
2018-03-30T12:50:41.247Z,45.20
2018-03-30T12:53:09.578Z,44.70
2018-03-30T12:55:37.162Z,44.70
2018-03-30T12:58:04.722Z,47.40
2018-03-30T13:00:32.305Z,42.90
2018-03-30T13:03:00.637Z,46.40
2018-03-30T13:05:28.468Z,46.40
2018-03-30T13:07:56.021Z,46.10
2018-03-30T13:10:23.576Z,51.00
2018-03-30T13:12:51.211Z,46.10
2018-03-30T13:15:18.773Z,49.10
2018-03-30T13:17:46.327Z,46.00
2018-03-30T13:20:13.902Z,48.30
2018-03-30T13:22:42.222Z,42.40
2018-03-30T13:25:09.801Z,41.90
2018-03-30T13:27:37.354Z,43.20
2018-03-30T13:30:04.913Z,41.90
2018-03-30T13:32:32.460Z,39.90
2018-03-30T13:35:00.028Z,40.90
2018-03-30T13:37:27.625Z,44.10
2018-03-30T13:39:55.183Z,47.80
2018-03-30T13:42:22.734Z,46.10
2018-03-30T13:44:50.330Z,48.10
2018-03-30T13:47:17.885Z,48.30
2018-03-30T13:49:45.434Z,46.10
2018-03-30T13:52:14.594Z,48.50
2018-03-30T13:54:42.235Z,48.60
2018-03-30T13:57:11.526Z,46.40
2018-03-30T13:59:39.101Z,48.10
2018-03-30T14:02:07.459Z,50.50
2018-03-30T14:04:52.513Z,49.60
2018-03-30T14:10:45.623Z,49.30
2018-03-30T14:13:13.288Z,49.90
2018-03-30T14:15:42.582Z,45.80
2018-03-30T14:18:10.926Z,47.00
2018-03-30T14:20:39.243Z,48.60
2018-03-30T14:23:27.382Z,48.80
2018-03-30T14:26:09.570Z,51.30
2018-03-30T14:28:37.162Z,51.50
2018-03-30T14:31:20.385Z,46.60
2018-03-30T14:33:47.965Z,50.30
2018-03-30T14:36:21.445Z,45.90
2018-03-30T14:38:56.805Z,47.40
2018-03-30T14:41:24.361Z,47.60
2018-03-30T14:43:51.925Z,47.80
2018-03-30T14:46:21.135Z,46.90
2018-03-30T14:48:49.576Z,45.90
2018-03-30T14:51:18.044Z,48.00
2018-03-30T14:53:45.622Z,46.20
2018-03-30T14:56:14.297Z,47.10
2018-03-30T14:58:45.409Z,44.70
2018-03-30T15:01:20.293Z,44.00
2018-03-30T15:03:55.843Z,44.20
2018-03-30T15:09:46.830Z,47.60
2018-03-30T15:12:33.112Z,48.20
2018-03-30T15:15:19.408Z,45.10
2018-03-30T15:18:02.544Z,46.90
2018-03-30T15:20:36.675Z,47.10
2018-03-30T15:23:08.146Z,46.50
2018-03-30T15:25:40.660Z,48.90
2018-03-30T15:28:11.173Z,48.20
2018-03-30T15:30:40.520Z,47.60
2018-03-30T15:33:13.958Z,45.80
2018-03-30T15:35:42.258Z,47.30
2018-03-30T15:38:09.836Z,47.50
2018-03-30T15:40:39.097Z,46.20
2018-03-30T15:43:14.299Z,47.10
2018-03-30T15:45:56.386Z,47.50
2018-03-30T15:48:23.971Z,46.30
2018-03-30T15:50:51.531Z,48.50
2018-03-30T15:53:18.590Z,45.90
2018-03-30T15:55:46.133Z,45.10
2018-03-30T15:58:13.693Z,46.70
2018-03-30T16:00:41.286Z,49.00
2018-03-30T16:03:08.843Z,48.80
2018-03-30T16:05:36.389Z,47.70
2018-03-30T16:08:03.939Z,47.50
2018-03-30T16:10:37.026Z,44.90
2018-03-30T16:13:04.639Z,48.00
2018-03-30T16:15:32.202Z,48.70
2018-03-30T16:17:59.749Z,47.20
2018-03-30T16:20:27.578Z,48.80
2018-03-30T16:22:54.633Z,48.60
2018-03-30T16:25:22.530Z,49.00
2018-03-30T16:27:49.606Z,48.90
2018-03-30T16:30:16.679Z,48.40
2018-03-30T16:32:43.756Z,47.40
2018-03-30T16:35:11.077Z,48.50
2018-03-30T16:37:38.174Z,49.20
2018-03-30T16:40:06.010Z,48.30
2018-03-30T16:42:33.107Z,48.20
2018-03-30T16:45:00.225Z,49.40
2018-03-30T16:47:27.287Z,51.30
2018-03-30T16:49:56.054Z,49.60
2018-03-30T16:52:23.127Z,54.20
2018-03-30T16:54:50.200Z,55.70
2018-03-30T16:57:17.290Z,54.60
2018-03-30T16:59:44.358Z,52.10
2018-03-30T17:02:12.226Z,57.50
2018-03-30T17:04:39.310Z,57.50
2018-03-30T17:07:06.501Z,54.70
2018-03-30T17:09:33.565Z,57.00
2018-03-30T17:12:00.649Z,57.30
2018-03-30T17:14:27.741Z,57.40
2018-03-30T17:16:54.810Z,56.40
2018-03-30T17:19:22.634Z,57.50
2018-03-30T17:21:49.702Z,57.50
2018-03-30T17:24:16.781Z,56.90
2018-03-30T17:26:44.658Z,57.00
2018-03-30T17:29:11.725Z,56.90
2018-03-30T17:31:38.792Z,56.90
2018-03-30T17:34:05.857Z,56.30
2018-03-30T17:36:32.971Z,57.30
2018-03-30T17:39:00.054Z,57.40
2018-03-30T17:41:27.125Z,57.20
2018-03-30T17:43:54.974Z,57.50
2018-03-30T17:46:22.046Z,57.50
2018-03-30T17:48:49.875Z,57.80
2018-03-30T17:51:16.986Z,57.60
2018-03-30T17:53:44.074Z,57.90
2018-03-30T17:56:11.138Z,57.80
2018-03-30T17:58:38.199Z,58.00
2018-03-30T18:01:06.024Z,58.20
2018-03-30T18:03:33.122Z,58.20
2018-03-30T18:06:00.201Z,58.30
2018-03-30T18:08:27.270Z,58.50
2018-03-30T18:10:54.346Z,58.70
2018-03-30T18:13:21.414Z,58.80
2018-03-30T18:15:48.534Z,58.50
2018-03-30T18:18:15.602Z,58.70
2018-03-30T18:20:43.438Z,58.70
2018-03-30T18:23:10.547Z,58.70
2018-03-30T18:25:37.633Z,58.90
2018-03-30T18:28:04.767Z,59.00
2018-03-30T18:30:31.830Z,58.80
2018-03-30T18:32:58.893Z,59.20
2018-03-30T18:35:25.960Z,59.10
2018-03-30T18:37:53.030Z,59.10
2018-03-30T18:40:20.117Z,59.00
2018-03-30T18:42:47.173Z,59.80
2018-03-30T18:45:14.283Z,59.10
2018-03-30T18:47:41.407Z,59.20
2018-03-30T18:50:09.258Z,59.30
2018-03-30T18:52:36.370Z,59.20
2018-03-30T18:55:03.442Z,59.10
2018-03-30T18:57:30.534Z,59.30
2018-03-30T18:59:57.597Z,59.20
2018-03-30T19:02:24.688Z,59.20
2018-03-30T19:04:51.778Z,59.10
2018-03-30T19:07:18.854Z,59.30
2018-03-30T19:09:45.918Z,59.10
2018-03-30T19:12:12.985Z,59.20
2018-03-30T19:14:40.057Z,59.40
2018-03-30T19:17:07.942Z,59.60
2018-03-30T19:19:35.021Z,59.50
2018-03-30T19:22:02.093Z,59.60
2018-03-30T19:24:29.158Z,59.60
2018-03-30T19:26:56.232Z,59.40
2018-03-30T19:29:23.326Z,59.50
2018-03-30T19:31:50.421Z,59.40
2018-03-30T19:34:17.490Z,59.50
2018-03-30T19:36:44.567Z,59.50
2018-03-30T19:39:11.707Z,59.50
2018-03-30T19:41:38.804Z,59.40
2018-03-30T19:44:06.646Z,59.70
2018-03-30T19:46:33.730Z,59.60
2018-03-30T19:49:01.574Z,59.50
2018-03-30T19:51:28.654Z,59.40
2018-03-30T19:53:55.746Z,59.60
2018-03-30T19:56:22.810Z,59.80
2018-03-30T19:58:49.891Z,59.70
2018-03-30T20:01:16.959Z,59.80
2018-03-30T20:03:44.021Z,59.60
2018-03-30T20:06:11.105Z,59.80
2018-03-30T20:08:38.174Z,59.90
2018-03-30T20:11:05.279Z,59.90
2018-03-30T20:13:32.515Z,59.90
2018-03-30T20:15:59.576Z,59.90
2018-03-30T20:18:26.671Z,59.60
2018-03-30T20:20:53.739Z,59.80
2018-03-30T20:23:20.824Z,59.70
2018-03-30T20:25:47.887Z,59.90
2018-03-30T20:28:14.964Z,59.80
2018-03-30T20:30:42.076Z,60.00
2018-03-30T20:33:09.137Z,59.90
2018-03-30T20:35:36.201Z,59.90
2018-03-30T20:38:03.278Z,59.90
2018-03-30T20:40:30.345Z,60.00
2018-03-30T20:42:57.546Z,59.90
2018-03-30T20:45:24.614Z,59.90
2018-03-30T20:47:52.451Z,60.00
2018-03-30T20:50:19.519Z,59.90
2018-03-30T20:52:46.592Z,60.00
2018-03-30T20:55:13.802Z,60.00
2018-03-30T20:57:40.872Z,60.00
2018-03-30T21:00:07.942Z,60.00
2018-03-30T21:02:35.091Z,60.00
2018-03-30T21:05:02.156Z,59.90
2018-03-30T21:16:32.418Z,60.00
2018-03-30T21:18:59.486Z,59.90
2018-03-30T21:21:26.550Z,59.80
2018-03-30T21:23:53.647Z,59.90
2018-03-30T21:26:20.714Z,59.80
2018-03-30T21:28:48.607Z,59.80
2018-03-30T21:31:15.691Z,59.90
2018-03-30T21:33:43.669Z,59.80
2018-03-30T21:36:10.734Z,59.80
2018-03-30T21:38:37.794Z,59.60
2018-03-30T21:41:04.855Z,59.80
2018-03-30T21:43:31.923Z,59.60
2018-03-30T21:45:59.030Z,59.60
2018-03-30T21:48:26.146Z,59.60
2018-03-30T21:50:53.205Z,59.60
2018-03-30T21:53:20.270Z,59.60
2018-03-30T21:55:47.335Z,59.50
2018-03-30T21:58:14.422Z,59.60
2018-03-30T22:00:41.495Z,59.70
2018-03-30T22:03:08.567Z,59.50
2018-03-30T22:05:35.630Z,59.60
2018-03-30T22:08:02.698Z,59.60
2018-03-30T22:10:30.561Z,59.50
2018-03-30T22:12:57.634Z,59.50
2018-03-30T22:15:24.735Z,59.40
2018-03-30T22:17:51.848Z,59.50
2018-03-30T22:20:18.927Z,59.80
2018-03-30T22:22:46.262Z,59.30
2018-03-30T22:25:13.330Z,59.40
2018-03-30T22:27:40.433Z,59.30
2018-03-30T22:30:07.521Z,59.10
2018-03-30T22:32:34.591Z,59.10
2018-03-30T22:35:01.686Z,58.90
2018-03-30T22:37:28.849Z,58.90
2018-03-30T22:39:55.918Z,58.90
2018-03-30T22:42:22.986Z,58.70
2018-03-30T22:44:50.058Z,58.80
2018-03-30T22:47:17.146Z,58.60
2018-03-30T22:49:44.209Z,58.50
2018-03-30T22:52:11.276Z,58.50
2018-03-30T22:54:38.341Z,58.30
2018-03-30T22:57:05.402Z,58.30
2018-03-30T22:59:32.586Z,58.30
2018-03-30T23:01:59.739Z,58.20
2018-03-30T23:04:26.770Z,58.10
2018-03-30T23:06:53.852Z,58.10
2018-03-30T23:09:20.919Z,58.10
2018-03-30T23:11:48.006Z,58.00
2018-03-30T23:14:15.072Z,58.00
2018-03-30T23:16:42.134Z,58.10
2018-03-30T23:19:09.201Z,58.10
2018-03-30T23:21:36.286Z,58.10
2018-03-30T23:24:03.379Z,58.10
2018-03-30T23:26:30.438Z,58.10
2018-03-30T23:28:57.523Z,58.00
2018-03-30T23:31:24.604Z,57.90
2018-03-30T23:33:51.703Z,57.90
2018-03-30T23:36:18.799Z,57.60
2018-03-30T23:38:45.909Z,57.70
2018-03-30T23:41:12.976Z,57.70
2018-03-30T23:43:40.047Z,57.70
2018-03-30T23:46:07.116Z,57.60
2018-03-30T23:48:34.210Z,57.70
2018-03-30T23:51:01.271Z,57.70
2018-03-30T23:53:28.394Z,57.50
2018-03-30T23:55:55.434Z,57.50
2018-03-30T23:58:22.494Z,57.50
